sensor_id;sensor_type;location;lat;lon;timestamp;P1;durP1;ratioP1;P2;durP2;ratioP2
56242;SDS011;42155;53.096;23.226;2024-02-28T00:01:29;21.77;;;11.55;;
56242;SDS011;42155;53.096;23.226;2024-02-28T00:03:29;22.10;;;11.07;;
56242;SDS011;42155;53.096;23.226;2024-02-28T00:05:29;23.40;;;12.02;;
56242;SDS011;42155;53.096;23.226;2024-02-28T00:07:30;23.90;;;11.43;;
56242;SDS011;42155;53.096;23.226;2024-02-28T00:09:31;22.52;;;10.73;;
56242;SDS011;42155;53.096;23.226;2024-02-28T00:11:31;23.10;;;10.65;;
56242;SDS011;42155;53.096;23.226;2024-02-28T00:13:31;25.13;;;11.73;;
56242;SDS011;42155;53.096;23.226;2024-02-28T00:15:32;35.85;;;11.48;;
56242;SDS011;42155;53.096;23.226;2024-02-28T00:17:32;20.13;;;10.70;;
56242;SDS011;42155;53.096;23.226;2024-02-28T00:19:32;24.10;;;11.00;;
56242;SDS011;42155;53.096;23.226;2024-02-28T00:21:33;20.83;;;10.77;;
56242;SDS011;42155;53.096;23.226;2024-02-28T00:23:33;27.95;;;12.45;;
56242;SDS011;42155;53.096;23.226;2024-02-28T00:25:33;23.20;;;11.23;;
56242;SDS011;42155;53.096;23.226;2024-02-28T00:27:34;23.92;;;11.77;;
56242;SDS011;42155;53.096;23.226;2024-02-28T00:29:34;24.20;;;11.52;;
56242;SDS011;42155;53.096;23.226;2024-02-28T00:31:35;20.77;;;10.98;;
56242;SDS011;42155;53.096;23.226;2024-02-28T00:33:35;24.13;;;11.95;;
56242;SDS011;42155;53.096;23.226;2024-02-28T00:35:36;21.23;;;10.35;;
56242;SDS011;42155;53.096;23.226;2024-02-28T00:37:36;21.58;;;11.52;;
56242;SDS011;42155;53.096;23.226;2024-02-28T00:39:36;22.17;;;11.48;;
56242;SDS011;42155;53.096;23.226;2024-02-28T00:41:37;23.30;;;11.70;;
56242;SDS011;42155;53.096;23.226;2024-02-28T00:43:37;22.88;;;11.95;;
56242;SDS011;42155;53.096;23.226;2024-02-28T00:45:37;24.83;;;11.52;;
56242;SDS011;42155;53.096;23.226;2024-02-28T00:47:38;20.08;;;11.23;;
56242;SDS011;42155;53.096;23.226;2024-02-28T00:49:38;24.63;;;11.98;;
56242;SDS011;42155;53.096;23.226;2024-02-28T00:51:38;22.45;;;11.50;;
56242;SDS011;42155;53.096;23.226;2024-02-28T00:53:39;28.75;;;12.75;;
56242;SDS011;42155;53.096;23.226;2024-02-28T00:55:39;23.20;;;12.00;;
56242;SDS011;42155;53.096;23.226;2024-02-28T00:57:39;22.67;;;11.43;;
56242;SDS011;42155;53.096;23.226;2024-02-28T00:59:40;21.27;;;12.30;;
56242;SDS011;42155;53.096;23.226;2024-02-28T01:01:40;27.90;;;12.13;;
56242;SDS011;42155;53.096;23.226;2024-02-28T01:03:40;26.20;;;11.73;;
56242;SDS011;42155;53.096;23.226;2024-02-28T01:05:41;25.10;;;12.35;;
56242;SDS011;42155;53.096;23.226;2024-02-28T01:07:42;26.75;;;11.35;;
56242;SDS011;42155;53.096;23.226;2024-02-28T01:09:42;24.55;;;11.55;;
56242;SDS011;42155;53.096;23.226;2024-02-28T01:11:42;19.75;;;10.77;;
56242;SDS011;42155;53.096;23.226;2024-02-28T01:13:43;20.02;;;11.52;;
56242;SDS011;42155;53.096;23.226;2024-02-28T01:15:43;23.73;;;12.05;;
56242;SDS011;42155;53.096;23.226;2024-02-28T01:17:43;20.48;;;11.05;;
56242;SDS011;42155;53.096;23.226;2024-02-28T01:19:44;21.25;;;10.95;;
56242;SDS011;42155;53.096;23.226;2024-02-28T01:21:44;26.00;;;11.65;;
56242;SDS011;42155;53.096;23.226;2024-02-28T01:23:44;28.88;;;11.77;;
56242;SDS011;42155;53.096;23.226;2024-02-28T01:25:45;21.63;;;10.43;;
56242;SDS011;42155;53.096;23.226;2024-02-28T01:27:45;23.50;;;11.90;;
56242;SDS011;42155;53.096;23.226;2024-02-28T01:29:45;23.95;;;12.27;;
56242;SDS011;42155;53.096;23.226;2024-02-28T01:31:46;22.52;;;11.68;;
56242;SDS011;42155;53.096;23.226;2024-02-28T01:33:46;25.08;;;12.43;;
56242;SDS011;42155;53.096;23.226;2024-02-28T01:35:46;22.75;;;10.90;;
56242;SDS011;42155;53.096;23.226;2024-02-28T01:37:47;22.58;;;11.70;;
56242;SDS011;42155;53.096;23.226;2024-02-28T01:39:47;27.30;;;12.45;;
56242;SDS011;42155;53.096;23.226;2024-02-28T01:41:53;24.73;;;12.40;;
56242;SDS011;42155;53.096;23.226;2024-02-28T01:43:54;23.00;;;12.00;;
56242;SDS011;42155;53.096;23.226;2024-02-28T01:45:54;22.80;;;10.75;;
56242;SDS011;42155;53.096;23.226;2024-02-28T01:47:55;25.65;;;12.48;;
56242;SDS011;42155;53.096;23.226;2024-02-28T01:49:55;21.67;;;11.80;;
56242;SDS011;42155;53.096;23.226;2024-02-28T01:51:56;26.08;;;12.32;;
56242;SDS011;42155;53.096;23.226;2024-02-28T01:53:57;24.83;;;12.07;;
56242;SDS011;42155;53.096;23.226;2024-02-28T01:55:58;27.83;;;14.00;;
56242;SDS011;42155;53.096;23.226;2024-02-28T01:57:59;25.60;;;12.55;;
56242;SDS011;42155;53.096;23.226;2024-02-28T01:59:59;27.20;;;12.70;;
56242;SDS011;42155;53.096;23.226;2024-02-28T02:02:00;26.65;;;13.60;;
56242;SDS011;42155;53.096;23.226;2024-02-28T02:04:00;26.13;;;12.63;;
56242;SDS011;42155;53.096;23.226;2024-02-28T02:06:03;25.95;;;13.60;;
56242;SDS011;42155;53.096;23.226;2024-02-28T02:08:04;27.75;;;13.70;;
56242;SDS011;42155;53.096;23.226;2024-02-28T02:10:05;25.77;;;12.88;;
56242;SDS011;42155;53.096;23.226;2024-02-28T02:12:05;27.13;;;12.50;;
56242;SDS011;42155;53.096;23.226;2024-02-28T02:14:06;26.45;;;12.20;;
56242;SDS011;42155;53.096;23.226;2024-02-28T02:16:06;25.17;;;12.73;;
56242;SDS011;42155;53.096;23.226;2024-02-28T02:18:07;24.80;;;11.85;;
56242;SDS011;42155;53.096;23.226;2024-02-28T02:20:07;23.45;;;11.82;;
56242;SDS011;42155;53.096;23.226;2024-02-28T02:22:13;25.00;;;12.05;;
56242;SDS011;42155;53.096;23.226;2024-02-28T02:24:14;25.33;;;11.55;;
56242;SDS011;42155;53.096;23.226;2024-02-28T02:26:14;20.90;;;11.57;;
56242;SDS011;42155;53.096;23.226;2024-02-28T02:28:14;27.63;;;13.43;;
56242;SDS011;42155;53.096;23.226;2024-02-28T02:30:15;26.00;;;12.10;;
56242;SDS011;42155;53.096;23.226;2024-02-28T02:32:15;21.35;;;10.77;;
56242;SDS011;42155;53.096;23.226;2024-02-28T02:34:16;26.40;;;12.00;;
56242;SDS011;42155;53.096;23.226;2024-02-28T02:36:16;22.70;;;11.88;;
56242;SDS011;42155;53.096;23.226;2024-02-28T02:38:16;25.80;;;12.43;;
56242;SDS011;42155;53.096;23.226;2024-02-28T02:40:17;27.08;;;12.27;;
56242;SDS011;42155;53.096;23.226;2024-02-28T02:42:17;21.30;;;12.40;;
56242;SDS011;42155;53.096;23.226;2024-02-28T02:44:17;24.00;;;12.60;;
56242;SDS011;42155;53.096;23.226;2024-02-28T02:46:18;24.90;;;12.82;;
56242;SDS011;42155;53.096;23.226;2024-02-28T02:48:18;21.23;;;11.38;;
56242;SDS011;42155;53.096;23.226;2024-02-28T02:50:18;25.63;;;12.40;;
56242;SDS011;42155;53.096;23.226;2024-02-28T02:52:19;27.30;;;12.85;;
56242;SDS011;42155;53.096;23.226;2024-02-28T02:54:19;21.08;;;11.57;;
56242;SDS011;42155;53.096;23.226;2024-02-28T02:56:19;27.10;;;12.75;;
56242;SDS011;42155;53.096;23.226;2024-02-28T02:58:20;27.52;;;11.68;;
56242;SDS011;42155;53.096;23.226;2024-02-28T03:00:21;25.83;;;11.95;;
56242;SDS011;42155;53.096;23.226;2024-02-28T03:02:22;25.55;;;12.07;;
56242;SDS011;42155;53.096;23.226;2024-02-28T03:04:22;25.33;;;12.43;;
56242;SDS011;42155;53.096;23.226;2024-02-28T03:06:22;25.90;;;12.90;;
56242;SDS011;42155;53.096;23.226;2024-02-28T03:08:23;24.77;;;12.23;;
56242;SDS011;42155;53.096;23.226;2024-02-28T03:10:23;24.95;;;12.00;;
56242;SDS011;42155;53.096;23.226;2024-02-28T03:12:23;22.15;;;12.02;;
56242;SDS011;42155;53.096;23.226;2024-02-28T03:14:24;29.55;;;12.50;;
56242;SDS011;42155;53.096;23.226;2024-02-28T03:16:24;23.90;;;12.75;;
56242;SDS011;42155;53.096;23.226;2024-02-28T03:18:24;23.17;;;11.60;;
56242;SDS011;42155;53.096;23.226;2024-02-28T03:20:25;22.33;;;12.30;;
56242;SDS011;42155;53.096;23.226;2024-02-28T03:22:25;26.90;;;12.82;;
56242;SDS011;42155;53.096;23.226;2024-02-28T03:24:25;26.23;;;12.77;;
56242;SDS011;42155;53.096;23.226;2024-02-28T03:26:26;25.65;;;13.43;;
56242;SDS011;42155;53.096;23.226;2024-02-28T03:28:26;26.92;;;12.85;;
56242;SDS011;42155;53.096;23.226;2024-02-28T03:30:27;24.48;;;12.05;;
56242;SDS011;42155;53.096;23.226;2024-02-28T03:32:27;24.67;;;11.85;;
56242;SDS011;42155;53.096;23.226;2024-02-28T03:34:27;25.73;;;12.23;;
56242;SDS011;42155;53.096;23.226;2024-02-28T03:36:28;27.17;;;12.48;;
56242;SDS011;42155;53.096;23.226;2024-02-28T03:38:28;23.02;;;12.68;;
56242;SDS011;42155;53.096;23.226;2024-02-28T03:40:29;29.00;;;13.07;;
56242;SDS011;42155;53.096;23.226;2024-02-28T03:42:29;26.08;;;12.98;;
56242;SDS011;42155;53.096;23.226;2024-02-28T03:44:29;25.08;;;12.82;;
56242;SDS011;42155;53.096;23.226;2024-02-28T03:46:30;26.88;;;12.77;;
56242;SDS011;42155;53.096;23.226;2024-02-28T03:48:30;27.05;;;13.80;;
56242;SDS011;42155;53.096;23.226;2024-02-28T03:50:31;29.13;;;13.20;;
56242;SDS011;42155;53.096;23.226;2024-02-28T03:52:31;25.38;;;12.52;;
56242;SDS011;42155;53.096;23.226;2024-02-28T03:54:31;25.45;;;12.38;;
56242;SDS011;42155;53.096;23.226;2024-02-28T03:56:32;27.98;;;12.35;;
56242;SDS011;42155;53.096;23.226;2024-02-28T03:58:32;25.27;;;12.90;;
56242;SDS011;42155;53.096;23.226;2024-02-28T04:00:32;29.10;;;12.48;;
56242;SDS011;42155;53.096;23.226;2024-02-28T04:02:33;25.92;;;13.15;;
56242;SDS011;42155;53.096;23.226;2024-02-28T04:04:33;26.83;;;13.63;;
56242;SDS011;42155;53.096;23.226;2024-02-28T04:06:33;32.00;;;14.40;;
56242;SDS011;42155;53.096;23.226;2024-02-28T04:08:33;30.75;;;14.15;;
56242;SDS011;42155;53.096;23.226;2024-02-28T04:10:34;30.95;;;14.32;;
56242;SDS011;42155;53.096;23.226;2024-02-28T04:12:34;31.25;;;13.25;;
56242;SDS011;42155;53.096;23.226;2024-02-28T04:14:37;35.38;;;14.88;;
56242;SDS011;42155;53.096;23.226;2024-02-28T04:16:41;33.08;;;15.40;;
56242;SDS011;42155;53.096;23.226;2024-02-28T04:18:42;39.15;;;16.77;;
56242;SDS011;42155;53.096;23.226;2024-02-28T04:20:42;39.80;;;17.67;;
56242;SDS011;42155;53.096;23.226;2024-02-28T04:22:43;39.90;;;17.92;;
56242;SDS011;42155;53.096;23.226;2024-02-28T04:24:43;38.17;;;16.45;;
56242;SDS011;42155;53.096;23.226;2024-02-28T04:26:44;39.13;;;15.40;;
56242;SDS011;42155;53.096;23.226;2024-02-28T04:28:44;39.33;;;16.58;;
56242;SDS011;42155;53.096;23.226;2024-02-28T04:30:44;36.03;;;15.73;;
56242;SDS011;42155;53.096;23.226;2024-02-28T04:32:44;37.13;;;16.58;;
56242;SDS011;42155;53.096;23.226;2024-02-28T04:34:45;35.53;;;16.20;;
56242;SDS011;42155;53.096;23.226;2024-02-28T04:36:45;36.78;;;15.65;;
56242;SDS011;42155;53.096;23.226;2024-02-28T04:38:46;43.25;;;16.30;;
56242;SDS011;42155;53.096;23.226;2024-02-28T04:40:46;40.08;;;17.70;;
56242;SDS011;42155;53.096;23.226;2024-02-28T04:42:46;48.72;;;19.77;;
56242;SDS011;42155;53.096;23.226;2024-02-28T04:44:46;47.50;;;19.80;;
56242;SDS011;42155;53.096;23.226;2024-02-28T04:46:47;45.97;;;18.98;;
56242;SDS011;42155;53.096;23.226;2024-02-28T04:48:47;42.05;;;18.58;;
56242;SDS011;42155;53.096;23.226;2024-02-28T04:50:47;43.17;;;18.30;;
56242;SDS011;42155;53.096;23.226;2024-02-28T04:52:48;47.38;;;18.48;;
56242;SDS011;42155;53.096;23.226;2024-02-28T04:54:48;43.90;;;19.00;;
56242;SDS011;42155;53.096;23.226;2024-02-28T04:56:48;41.75;;;18.13;;
56242;SDS011;42155;53.096;23.226;2024-02-28T04:58:49;35.90;;;16.08;;
56242;SDS011;42155;53.096;23.226;2024-02-28T05:00:49;37.30;;;16.55;;
56242;SDS011;42155;53.096;23.226;2024-02-28T05:02:49;36.05;;;16.35;;
56242;SDS011;42155;53.096;23.226;2024-02-28T05:04:50;38.72;;;16.98;;
56242;SDS011;42155;53.096;23.226;2024-02-28T05:06:50;40.60;;;16.67;;
56242;SDS011;42155;53.096;23.226;2024-02-28T05:08:50;38.40;;;16.13;;
56242;SDS011;42155;53.096;23.226;2024-02-28T05:10:51;35.22;;;16.00;;
56242;SDS011;42155;53.096;23.226;2024-02-28T05:12:51;45.78;;;20.02;;
56242;SDS011;42155;53.096;23.226;2024-02-28T05:14:51;41.45;;;19.27;;
56242;SDS011;42155;53.096;23.226;2024-02-28T05:16:52;40.50;;;17.55;;
56242;SDS011;42155;53.096;23.226;2024-02-28T05:18:52;42.15;;;18.27;;
56242;SDS011;42155;53.096;23.226;2024-02-28T05:20:52;41.45;;;18.00;;
56242;SDS011;42155;53.096;23.226;2024-02-28T05:22:53;43.88;;;18.75;;
56242;SDS011;42155;53.096;23.226;2024-02-28T05:24:53;39.47;;;17.88;;
56242;SDS011;42155;53.096;23.226;2024-02-28T05:26:54;38.15;;;17.17;;
56242;SDS011;42155;53.096;23.226;2024-02-28T05:28:54;40.00;;;17.30;;
56242;SDS011;42155;53.096;23.226;2024-02-28T05:30:54;32.05;;;15.73;;
56242;SDS011;42155;53.096;23.226;2024-02-28T05:32:55;26.88;;;14.10;;
56242;SDS011;42155;53.096;23.226;2024-02-28T05:34:55;28.98;;;14.20;;
56242;SDS011;42155;53.096;23.226;2024-02-28T05:36:55;26.77;;;13.68;;
56242;SDS011;42155;53.096;23.226;2024-02-28T05:38:57;27.85;;;14.20;;
56242;SDS011;42155;53.096;23.226;2024-02-28T05:40:59;30.33;;;14.23;;
56242;SDS011;42155;53.096;23.226;2024-02-28T05:42:59;27.15;;;13.45;;
56242;SDS011;42155;53.096;23.226;2024-02-28T05:45:00;31.23;;;14.38;;
56242;SDS011;42155;53.096;23.226;2024-02-28T05:47:00;28.10;;;14.35;;
56242;SDS011;42155;53.096;23.226;2024-02-28T05:49:00;27.85;;;13.35;;
56242;SDS011;42155;53.096;23.226;2024-02-28T05:51:01;26.55;;;13.73;;
56242;SDS011;42155;53.096;23.226;2024-02-28T05:53:02;25.35;;;13.32;;
56242;SDS011;42155;53.096;23.226;2024-02-28T05:55:02;30.10;;;13.27;;
56242;SDS011;42155;53.096;23.226;2024-02-28T05:57:03;29.58;;;14.05;;
56242;SDS011;42155;53.096;23.226;2024-02-28T05:59:03;29.35;;;14.18;;
56242;SDS011;42155;53.096;23.226;2024-02-28T06:01:04;29.60;;;14.20;;
56242;SDS011;42155;53.096;23.226;2024-02-28T06:03:04;28.17;;;14.30;;
56242;SDS011;42155;53.096;23.226;2024-02-28T06:05:05;24.85;;;13.80;;
56242;SDS011;42155;53.096;23.226;2024-02-28T06:07:05;29.63;;;14.60;;
56242;SDS011;42155;53.096;23.226;2024-02-28T06:09:06;29.85;;;15.05;;
56242;SDS011;42155;53.096;23.226;2024-02-28T06:11:07;36.42;;;15.52;;
56242;SDS011;42155;53.096;23.226;2024-02-28T06:13:07;28.98;;;15.25;;
56242;SDS011;42155;53.096;23.226;2024-02-28T06:15:08;29.38;;;14.50;;
56242;SDS011;42155;53.096;23.226;2024-02-28T06:17:08;32.33;;;14.25;;
56242;SDS011;42155;53.096;23.226;2024-02-28T06:19:08;27.00;;;13.48;;
56242;SDS011;42155;53.096;23.226;2024-02-28T06:21:09;23.17;;;13.20;;
56242;SDS011;42155;53.096;23.226;2024-02-28T06:23:09;28.23;;;13.73;;
56242;SDS011;42155;53.096;23.226;2024-02-28T06:25:09;30.88;;;13.40;;
56242;SDS011;42155;53.096;23.226;2024-02-28T06:27:10;25.58;;;13.68;;
56242;SDS011;42155;53.096;23.226;2024-02-28T06:29:10;26.27;;;13.02;;
56242;SDS011;42155;53.096;23.226;2024-02-28T06:31:16;28.15;;;14.13;;
56242;SDS011;42155;53.096;23.226;2024-02-28T06:33:17;30.55;;;14.35;;
56242;SDS011;42155;53.096;23.226;2024-02-28T06:35:17;25.58;;;13.55;;
56242;SDS011;42155;53.096;23.226;2024-02-28T06:37:18;32.75;;;15.10;;
56242;SDS011;42155;53.096;23.226;2024-02-28T06:39:18;29.00;;;14.05;;
56242;SDS011;42155;53.096;23.226;2024-02-28T06:41:18;28.17;;;13.32;;
56242;SDS011;42155;53.096;23.226;2024-02-28T06:43:19;29.23;;;13.60;;
56242;SDS011;42155;53.096;23.226;2024-02-28T06:45:19;26.08;;;13.52;;
56242;SDS011;42155;53.096;23.226;2024-02-28T06:47:19;29.88;;;13.55;;
56242;SDS011;42155;53.096;23.226;2024-02-28T06:49:21;23.63;;;12.80;;
56242;SDS011;42155;53.096;23.226;2024-02-28T06:51:21;28.38;;;13.45;;
56242;SDS011;42155;53.096;23.226;2024-02-28T06:53:21;24.95;;;12.38;;
56242;SDS011;42155;53.096;23.226;2024-02-28T06:55:22;25.20;;;13.50;;
56242;SDS011;42155;53.096;23.226;2024-02-28T06:57:22;31.63;;;15.02;;
56242;SDS011;42155;53.096;23.226;2024-02-28T06:59:22;25.48;;;13.88;;
56242;SDS011;42155;53.096;23.226;2024-02-28T07:01:23;33.00;;;13.48;;
56242;SDS011;42155;53.096;23.226;2024-02-28T07:03:23;24.05;;;13.05;;
56242;SDS011;42155;53.096;23.226;2024-02-28T07:05:23;23.83;;;12.75;;
56242;SDS011;42155;53.096;23.226;2024-02-28T07:07:24;27.23;;;13.13;;
56242;SDS011;42155;53.096;23.226;2024-02-28T07:09:24;23.88;;;12.40;;
56242;SDS011;42155;53.096;23.226;2024-02-28T07:11:24;25.17;;;12.63;;
56242;SDS011;42155;53.096;23.226;2024-02-28T07:13:25;24.42;;;12.75;;
56242;SDS011;42155;53.096;23.226;2024-02-28T07:15:25;30.35;;;12.85;;
56242;SDS011;42155;53.096;23.226;2024-02-28T07:17:25;29.90;;;12.98;;
56242;SDS011;42155;53.096;23.226;2024-02-28T07:19:26;28.00;;;12.75;;
56242;SDS011;42155;53.096;23.226;2024-02-28T07:21:26;29.75;;;13.70;;
56242;SDS011;42155;53.096;23.226;2024-02-28T07:23:26;23.55;;;12.30;;
56242;SDS011;42155;53.096;23.226;2024-02-28T07:25:27;25.60;;;12.98;;
56242;SDS011;42155;53.096;23.226;2024-02-28T07:27:27;25.73;;;12.95;;
56242;SDS011;42155;53.096;23.226;2024-02-28T07:29:28;28.90;;;12.77;;
56242;SDS011;42155;53.096;23.226;2024-02-28T07:31:28;33.75;;;14.38;;
56242;SDS011;42155;53.096;23.226;2024-02-28T07:33:28;26.38;;;13.05;;
56242;SDS011;42155;53.096;23.226;2024-02-28T07:35:29;28.98;;;13.15;;
56242;SDS011;42155;53.096;23.226;2024-02-28T07:37:29;24.75;;;13.02;;
56242;SDS011;42155;53.096;23.226;2024-02-28T07:39:29;25.90;;;12.50;;
56242;SDS011;42155;53.096;23.226;2024-02-28T07:41:30;30.27;;;14.25;;
56242;SDS011;42155;53.096;23.226;2024-02-28T07:43:30;29.77;;;14.38;;
56242;SDS011;42155;53.096;23.226;2024-02-28T07:45:30;28.60;;;14.25;;
56242;SDS011;42155;53.096;23.226;2024-02-28T07:47:30;36.45;;;15.75;;
56242;SDS011;42155;53.096;23.226;2024-02-28T07:49:31;30.73;;;14.32;;
56242;SDS011;42155;53.096;23.226;2024-02-28T07:51:31;31.08;;;13.95;;
56242;SDS011;42155;53.096;23.226;2024-02-28T07:53:31;34.05;;;14.35;;
56242;SDS011;42155;53.096;23.226;2024-02-28T07:55:32;27.77;;;14.02;;
56242;SDS011;42155;53.096;23.226;2024-02-28T07:57:32;29.15;;;15.07;;
56242;SDS011;42155;53.096;23.226;2024-02-28T07:59:33;37.22;;;15.32;;
56242;SDS011;42155;53.096;23.226;2024-02-28T08:01:39;34.20;;;16.65;;
56242;SDS011;42155;53.096;23.226;2024-02-28T08:03:39;28.83;;;14.63;;
56242;SDS011;42155;53.096;23.226;2024-02-28T08:05:39;30.42;;;14.02;;
56242;SDS011;42155;53.096;23.226;2024-02-28T08:07:40;31.52;;;13.88;;
56242;SDS011;42155;53.096;23.226;2024-02-28T08:09:41;31.75;;;14.43;;
56242;SDS011;42155;53.096;23.226;2024-02-28T08:11:41;26.83;;;13.68;;
56242;SDS011;42155;53.096;23.226;2024-02-28T08:13:42;26.23;;;13.90;;
56242;SDS011;42155;53.096;23.226;2024-02-28T08:15:43;26.27;;;13.90;;
56242;SDS011;42155;53.096;23.226;2024-02-28T08:17:43;28.13;;;14.52;;
56242;SDS011;42155;53.096;23.226;2024-02-28T08:19:43;26.40;;;14.68;;
56242;SDS011;42155;53.096;23.226;2024-02-28T08:21:44;22.75;;;13.35;;
56242;SDS011;42155;53.096;23.226;2024-02-28T08:23:44;31.67;;;14.05;;
56242;SDS011;42155;53.096;23.226;2024-02-28T08:25:44;27.13;;;14.80;;
56242;SDS011;42155;53.096;23.226;2024-02-28T08:27:45;25.48;;;13.55;;
56242;SDS011;42155;53.096;23.226;2024-02-28T08:29:45;30.45;;;13.77;;
56242;SDS011;42155;53.096;23.226;2024-02-28T08:31:45;25.83;;;14.00;;
56242;SDS011;42155;53.096;23.226;2024-02-28T08:33:46;28.65;;;14.93;;
56242;SDS011;42155;53.096;23.226;2024-02-28T08:35:46;29.45;;;13.63;;
56242;SDS011;42155;53.096;23.226;2024-02-28T08:37:46;30.48;;;14.23;;
56242;SDS011;42155;53.096;23.226;2024-02-28T08:39:47;31.92;;;15.43;;
56242;SDS011;42155;53.096;23.226;2024-02-28T08:41:47;28.25;;;14.13;;
56242;SDS011;42155;53.096;23.226;2024-02-28T08:43:47;29.00;;;15.23;;
56242;SDS011;42155;53.096;23.226;2024-02-28T08:45:48;28.88;;;14.20;;
56242;SDS011;42155;53.096;23.226;2024-02-28T08:47:48;31.35;;;15.45;;
56242;SDS011;42155;53.096;23.226;2024-02-28T08:49:48;34.25;;;16.38;;
56242;SDS011;42155;53.096;23.226;2024-02-28T08:51:49;32.30;;;16.55;;
56242;SDS011;42155;53.096;23.226;2024-02-28T08:53:49;30.02;;;15.27;;
56242;SDS011;42155;53.096;23.226;2024-02-28T08:55:50;29.83;;;15.20;;
56242;SDS011;42155;53.096;23.226;2024-02-28T08:57:50;32.88;;;16.65;;
56242;SDS011;42155;53.096;23.226;2024-02-28T08:59:50;34.63;;;15.40;;
56242;SDS011;42155;53.096;23.226;2024-02-28T09:01:51;33.60;;;15.90;;
56242;SDS011;42155;53.096;23.226;2024-02-28T09:03:51;33.20;;;16.25;;
56242;SDS011;42155;53.096;23.226;2024-02-28T09:05:51;33.58;;;16.17;;
56242;SDS011;42155;53.096;23.226;2024-02-28T09:07:52;36.55;;;16.13;;
56242;SDS011;42155;53.096;23.226;2024-02-28T09:09:52;28.73;;;15.15;;
56242;SDS011;42155;53.096;23.226;2024-02-28T09:11:52;37.95;;;16.30;;
56242;SDS011;42155;53.096;23.226;2024-02-28T09:13:53;33.13;;;16.42;;
56242;SDS011;42155;53.096;23.226;2024-02-28T09:15:53;36.08;;;16.88;;
56242;SDS011;42155;53.096;23.226;2024-02-28T09:17:53;35.20;;;16.48;;
56242;SDS011;42155;53.096;23.226;2024-02-28T09:19:54;31.52;;;15.90;;
56242;SDS011;42155;53.096;23.226;2024-02-28T09:21:54;36.10;;;16.15;;
56242;SDS011;42155;53.096;23.226;2024-02-28T09:23:54;35.30;;;16.65;;
56242;SDS011;42155;53.096;23.226;2024-02-28T09:25:55;33.63;;;15.52;;
56242;SDS011;42155;53.096;23.226;2024-02-28T09:27:55;29.10;;;15.65;;
56242;SDS011;42155;53.096;23.226;2024-02-28T09:29:55;30.70;;;16.02;;
56242;SDS011;42155;53.096;23.226;2024-02-28T09:31:56;34.33;;;15.65;;
56242;SDS011;42155;53.096;23.226;2024-02-28T09:33:56;30.92;;;15.85;;
56242;SDS011;42155;53.096;23.226;2024-02-28T09:35:56;29.70;;;14.93;;
56242;SDS011;42155;53.096;23.226;2024-02-28T09:37:57;31.27;;;16.63;;
56242;SDS011;42155;53.096;23.226;2024-02-28T09:39:57;31.63;;;16.17;;
56242;SDS011;42155;53.096;23.226;2024-02-28T09:41:57;33.35;;;15.75;;
56242;SDS011;42155;53.096;23.226;2024-02-28T09:43:58;32.17;;;15.70;;
56242;SDS011;42155;53.096;23.226;2024-02-28T09:46:04;33.33;;;16.90;;
56242;SDS011;42155;53.096;23.226;2024-02-28T09:48:05;32.08;;;16.35;;
56242;SDS011;42155;53.096;23.226;2024-02-28T09:50:07;38.28;;;18.45;;
56242;SDS011;42155;53.096;23.226;2024-02-28T09:52:07;30.42;;;15.32;;
56242;SDS011;42155;53.096;23.226;2024-02-28T09:54:07;34.75;;;16.73;;
56242;SDS011;42155;53.096;23.226;2024-02-28T09:56:08;35.65;;;16.85;;
56242;SDS011;42155;53.096;23.226;2024-02-28T09:58:09;31.13;;;16.63;;
56242;SDS011;42155;53.096;23.226;2024-02-28T10:00:10;31.17;;;15.85;;
56242;SDS011;42155;53.096;23.226;2024-02-28T10:02:12;31.27;;;16.42;;
56242;SDS011;42155;53.096;23.226;2024-02-28T10:04:17;30.52;;;16.02;;
56242;SDS011;42155;53.096;23.226;2024-02-28T10:06:18;29.83;;;16.02;;
56242;SDS011;42155;53.096;23.226;2024-02-28T10:08:18;32.67;;;17.05;;
56242;SDS011;42155;53.096;23.226;2024-02-28T10:10:19;35.85;;;17.88;;
56242;SDS011;42155;53.096;23.226;2024-02-28T10:12:20;34.35;;;17.13;;
56242;SDS011;42155;53.096;23.226;2024-02-28T10:14:20;31.60;;;16.45;;
56242;SDS011;42155;53.096;23.226;2024-02-28T10:16:21;35.78;;;18.23;;
56242;SDS011;42155;53.096;23.226;2024-02-28T10:18:21;31.10;;;17.08;;
56242;SDS011;42155;53.096;23.226;2024-02-28T10:20:21;33.90;;;17.55;;
56242;SDS011;42155;53.096;23.226;2024-02-28T10:22:21;36.95;;;17.13;;
56242;SDS011;42155;53.096;23.226;2024-02-28T10:24:25;29.33;;;17.50;;
56242;SDS011;42155;53.096;23.226;2024-02-28T10:26:25;32.72;;;17.45;;
56242;SDS011;42155;53.096;23.226;2024-02-28T10:28:25;32.55;;;16.80;;
56242;SDS011;42155;53.096;23.226;2024-02-28T10:30:26;32.80;;;17.58;;
56242;SDS011;42155;53.096;23.226;2024-02-28T10:32:26;34.28;;;18.00;;
56242;SDS011;42155;53.096;23.226;2024-02-28T10:34:27;38.30;;;17.52;;
56242;SDS011;42155;53.096;23.226;2024-02-28T10:36:27;34.55;;;18.15;;
56242;SDS011;42155;53.096;23.226;2024-02-28T10:38:32;32.72;;;18.15;;
56242;SDS011;42155;53.096;23.226;2024-02-28T10:40:32;35.97;;;18.02;;
56242;SDS011;42155;53.096;23.226;2024-02-28T10:42:33;33.70;;;16.77;;
56242;SDS011;42155;53.096;23.226;2024-02-28T10:44:34;30.08;;;16.67;;
56242;SDS011;42155;53.096;23.226;2024-02-28T10:46:37;33.97;;;17.58;;
56242;SDS011;42155;53.096;23.226;2024-02-28T10:48:38;31.58;;;17.58;;
56242;SDS011;42155;53.096;23.226;2024-02-28T10:50:38;39.28;;;18.58;;
56242;SDS011;42155;53.096;23.226;2024-02-28T10:52:39;34.58;;;18.27;;
56242;SDS011;42155;53.096;23.226;2024-02-28T10:54:43;32.10;;;16.92;;
56242;SDS011;42155;53.096;23.226;2024-02-28T10:56:48;37.20;;;18.98;;
56242;SDS011;42155;53.096;23.226;2024-02-28T10:58:51;33.65;;;17.67;;
56242;SDS011;42155;53.096;23.226;2024-02-28T11:00:52;33.63;;;18.27;;
56242;SDS011;42155;53.096;23.226;2024-02-28T11:02:53;34.13;;;18.27;;
56242;SDS011;42155;53.096;23.226;2024-02-28T11:04:53;36.33;;;18.80;;
56242;SDS011;42155;53.096;23.226;2024-02-28T11:06:55;28.45;;;16.60;;
56242;SDS011;42155;53.096;23.226;2024-02-28T11:08:58;30.95;;;17.05;;
56242;SDS011;42155;53.096;23.226;2024-02-28T11:11:03;29.20;;;17.02;;
56242;SDS011;42155;53.096;23.226;2024-02-28T11:13:03;34.78;;;17.30;;
56242;SDS011;42155;53.096;23.226;2024-02-28T11:15:04;34.40;;;17.80;;
56242;SDS011;42155;53.096;23.226;2024-02-28T11:17:05;32.42;;;17.02;;
56242;SDS011;42155;53.096;23.226;2024-02-28T11:19:05;32.08;;;19.08;;
56242;SDS011;42155;53.096;23.226;2024-02-28T11:21:14;33.20;;;18.40;;
56242;SDS011;42155;53.096;23.226;2024-02-28T11:23:16;38.75;;;18.77;;
56242;SDS011;42155;53.096;23.226;2024-02-28T11:25:17;39.63;;;19.23;;
56242;SDS011;42155;53.096;23.226;2024-02-28T11:27:18;37.92;;;19.05;;
56242;SDS011;42155;53.096;23.226;2024-02-28T11:29:27;37.20;;;20.40;;
56242;SDS011;42155;53.096;23.226;2024-02-28T11:31:28;35.03;;;18.85;;
56242;SDS011;42155;53.096;23.226;2024-02-28T11:33:29;41.13;;;19.23;;
56242;SDS011;42155;53.096;23.226;2024-02-28T11:35:29;38.28;;;18.30;;